KOLS/OLS METAR and TAF weather

Enter ICAO airport designator
Station Type Date Time Source
KOLS METAR 2022/06/27 09:01 UTC NOAA

KOLS 270901Z AUTO 00000KT 10SM SCT025 OVC090 19/17 A3028 RMK AO2 T01890167


Station Type Date Time Source
KOLS Decoded METAR 2022/06/27 09:01 UTC NOAA

NOGALES INTERNATIONAL AIRPORT , AZ, United States (KOLS) 31-25N 110-51W 1184M
Jun 27, 2022 - 05:01 AM EDT / 2022.06.27 0901 UTC
Wind: Calm:0
Visibility: 10 mile(s):0
Sky conditions: overcast
Temperature: 66.0 F (18.9 C)
Dew Point: 62.1 F (16.7 C)
Relative Humidity: 87%
Pressure (altimeter): 30.28 in. Hg (1025 hPa)
ob: KOLS 270901Z AUTO 00000KT 10SM SCT025 OVC090 19/17 A3028 RMK AO2 T01890167
cycle: 9

Station Type Date Time Source
KOLS TAF 2022/06/27 08:18 UTC NOAA

TAF
AMD KOLS 270815Z 2708/2806 16011G21KT P6SM -SHRA SCT060 OVC080
TEMPO 2708/2711 5SM -TSRA SCT030 OVC050CB
FM271300 15011KT P6SM VCSH SCT060 BKN100
FM271600 VRB04KT P6SM SCT080 BKN110
FM272000 08007KT P6SM SCT060 BKN110 PROB30 2722/2802 P6SM TSRA BKN040CB
FM280300 35004KT P6SM SCT060 BKN110

Example: see airport list